createdAt,value
2022-08-04T00:01:43.166Z,22.50
2022-08-04T00:04:12.757Z,22.40
2022-08-04T00:06:51.032Z,22.40
2022-08-04T00:09:21.660Z,22.40
2022-08-04T00:11:49.104Z,22.30
2022-08-04T00:14:16.545Z,22.30
2022-08-04T00:16:43.487Z,22.30
2022-08-04T00:19:11.413Z,22.30
2022-08-04T00:21:38.679Z,22.30
2022-08-04T00:24:11.136Z,22.30
2022-08-04T00:26:39.990Z,22.30
2022-08-04T00:29:06.674Z,22.20
2022-08-04T00:31:56.112Z,22.20
2022-08-04T00:34:20.060Z,22.10
2022-08-04T00:36:46.761Z,22.10
2022-08-04T00:39:13.998Z,22.10
2022-08-04T00:41:56.453Z,22.10
2022-08-04T00:44:30.802Z,22.00
2022-08-04T00:47:06.389Z,21.90
2022-08-04T00:49:51.970Z,21.90
2022-08-04T00:52:32.855Z,21.80
2022-08-04T00:55:01.700Z,21.80
2022-08-04T00:57:35.464Z,21.70
2022-08-04T01:00:02.299Z,21.70
2022-08-04T01:02:32.007Z,21.60
2022-08-04T01:05:03.506Z,21.60
2022-08-04T01:07:48.601Z,21.60
2022-08-04T01:10:18.378Z,21.50
2022-08-04T01:12:45.136Z,21.50
2022-08-04T01:15:17.984Z,21.40
2022-08-04T01:18:00.362Z,21.30
2022-08-04T01:20:27.276Z,21.30
2022-08-04T01:22:59.756Z,21.30
2022-08-04T01:25:35.721Z,21.20
2022-08-04T01:28:30.443Z,21.10
2022-08-04T01:30:58.578Z,21.10
2022-08-04T01:33:25.754Z,21.10
2022-08-04T01:35:56.179Z,21.10
2022-08-04T01:38:26.913Z,21.10
2022-08-04T01:40:55.486Z,21.10
2022-08-04T01:43:22.239Z,21.00
2022-08-04T01:45:57.529Z,21.00
2022-08-04T01:48:27.405Z,20.90
2022-08-04T01:50:54.760Z,20.90
2022-08-04T01:53:21.510Z,20.90
2022-08-04T01:55:54.215Z,20.90
2022-08-04T01:58:22.087Z,20.80
2022-08-04T02:01:02.618Z,20.70
2022-08-04T02:04:21.987Z,20.60
2022-08-04T02:06:45.271Z,20.60
2022-08-04T02:09:27.073Z,20.50
2022-08-04T02:12:16.776Z,20.50
2022-08-04T02:14:45.626Z,20.50
2022-08-04T02:17:17.976Z,20.40
2022-08-04T02:19:44.679Z,20.40
2022-08-04T02:22:13.910Z,20.40
2022-08-04T02:24:42.769Z,20.40
2022-08-04T02:27:09.514Z,20.40
2022-08-04T02:29:40.969Z,20.40
2022-08-04T02:32:10.724Z,20.40
2022-08-04T02:34:40.486Z,20.40
2022-08-04T02:37:07.231Z,20.40
2022-08-04T02:39:47.920Z,20.30
2022-08-04T02:42:15.965Z,20.30
2022-08-04T02:44:42.676Z,20.30
2022-08-04T02:47:09.409Z,20.30
2022-08-04T02:49:36.419Z,20.30
2022-08-04T02:52:07.271Z,20.20
2022-08-04T02:54:35.284Z,20.20
2022-08-04T02:57:02.257Z,20.20
2022-08-04T02:59:32.388Z,20.20
2022-08-04T03:01:59.166Z,20.10
2022-08-04T03:04:40.888Z,20.10
2022-08-04T03:07:26.008Z,20.00
2022-08-04T03:09:52.812Z,20.00
2022-08-04T03:12:37.867Z,20.00
2022-08-04T03:15:15.784Z,20.00
2022-08-04T03:18:08.827Z,19.90
2022-08-04T03:21:00.415Z,19.90
2022-08-04T03:23:47.269Z,19.90
2022-08-04T03:26:33.155Z,19.90
2022-08-04T03:29:26.051Z,19.80
2022-08-04T03:32:22.490Z,19.80
2022-08-04T03:35:13.600Z,19.70
2022-08-04T03:37:49.442Z,19.70
2022-08-04T03:40:35.506Z,19.70
2022-08-04T03:43:02.215Z,19.70
2022-08-04T03:45:28.887Z,19.70
2022-08-04T03:47:58.466Z,19.70
2022-08-04T03:50:28.126Z,19.70
2022-08-04T03:53:13.614Z,19.70
2022-08-04T03:55:46.320Z,19.70
2022-08-04T03:58:33.915Z,19.70
2022-08-04T04:01:03.971Z,19.90
2022-08-04T04:03:40.887Z,20.50
2022-08-04T04:06:26.520Z,21.10
2022-08-04T04:08:59.420Z,21.80
2022-08-04T04:11:29.206Z,22.40
2022-08-04T04:13:58.723Z,22.80
2022-08-04T04:16:25.420Z,23.30
2022-08-04T04:18:52.765Z,23.80
2022-08-04T04:21:34.967Z,24.40
2022-08-04T04:24:14.029Z,24.90
2022-08-04T04:26:40.740Z,25.40
2022-08-04T04:29:25.979Z,25.70
2022-08-04T04:32:11.724Z,26.00
2022-08-04T04:35:04.540Z,26.80
2022-08-04T04:37:48.922Z,27.40
2022-08-04T04:40:15.941Z,28.00
2022-08-04T04:43:01.767Z,28.30
2022-08-04T04:45:34.822Z,28.70
2022-08-04T04:48:16.783Z,29.00
2022-08-04T04:50:58.505Z,29.60
2022-08-04T04:53:29.132Z,29.80
2022-08-04T04:56:06.161Z,29.60
2022-08-04T04:58:33.153Z,29.70
2022-08-04T05:01:15.012Z,29.90
2022-08-04T05:04:00.664Z,30.00
2022-08-04T05:06:39.542Z,30.00
2022-08-04T05:09:20.758Z,30.50
2022-08-04T05:11:47.452Z,30.50
2022-08-04T05:14:34.683Z,30.70
2022-08-04T05:17:08.457Z,30.80
2022-08-04T05:19:38.286Z,30.70
2022-08-04T05:22:18.612Z,30.90
2022-08-04T05:24:45.386Z,31.40
2022-08-04T05:27:12.696Z,31.60
2022-08-04T05:29:41.828Z,31.50
2022-08-04T05:32:10.878Z,31.20
2022-08-04T05:34:41.458Z,31.10
2022-08-04T05:37:08.514Z,31.60
2022-08-04T05:39:39.504Z,32.10
2022-08-04T05:42:07.378Z,32.40
2022-08-04T05:44:34.286Z,33.10
2022-08-04T05:47:01.029Z,33.60
2022-08-04T05:49:27.982Z,33.50
2022-08-04T05:51:55.466Z,33.20
2022-08-04T05:54:22.267Z,33.10
2022-08-04T05:56:49.100Z,33.40
2022-08-04T05:59:15.793Z,33.80
2022-08-04T06:01:55.587Z,34.50
2022-08-04T06:04:23.154Z,34.50
2022-08-04T06:06:49.852Z,35.00
2022-08-04T06:09:16.550Z,35.30
2022-08-04T06:11:59.172Z,35.90
2022-08-04T06:14:31.840Z,36.20
2022-08-04T06:16:58.526Z,36.80
2022-08-04T06:19:59.847Z,37.20
2022-08-04T06:22:13.457Z,37.40
2022-08-04T06:24:40.179Z,37.70
2022-08-04T06:27:07.264Z,38.00
2022-08-04T06:29:37.191Z,37.80
2022-08-04T06:32:28.588Z,37.70
2022-08-04T06:34:59.720Z,38.10
2022-08-04T06:37:41.822Z,38.40
2022-08-04T06:40:29.806Z,38.60
2022-08-04T06:42:57.619Z,38.70
2022-08-04T06:45:24.313Z,39.00
2022-08-04T06:47:51.057Z,39.10
2022-08-04T06:51:32.428Z,39.10
2022-08-04T06:53:04.532Z,39.10
2022-08-04T06:55:31.577Z,39.30
2022-08-04T06:58:02.669Z,39.70
2022-08-04T07:00:30.018Z,39.80
2022-08-04T07:02:57.682Z,39.90
2022-08-04T07:05:24.402Z,40.10
2022-08-04T07:07:56.796Z,40.30
2022-08-04T07:10:25.793Z,40.50
2022-08-04T07:12:53.857Z,41.30
2022-08-04T07:15:20.829Z,41.80
2022-08-04T07:17:52.006Z,42.10
2022-08-04T07:20:34.652Z,42.00
2022-08-04T07:23:03.586Z,42.20
2022-08-04T07:26:00.828Z,42.20
2022-08-04T07:28:17.078Z,42.10
2022-08-04T07:30:44.055Z,42.00
2022-08-04T07:33:10.887Z,42.40
2022-08-04T07:36:05.486Z,42.50
2022-08-04T07:38:27.730Z,42.20
2022-08-04T07:40:55.014Z,42.50
2022-08-04T07:43:21.723Z,42.50
2022-08-04T07:45:48.415Z,42.70
2022-08-04T07:48:15.623Z,42.90
2022-08-04T07:50:42.663Z,43.00
2022-08-04T07:53:55.310Z,43.10
2022-08-04T07:55:56.206Z,43.60
2022-08-04T07:58:23.035Z,44.10
2022-08-04T08:00:49.734Z,44.10
2022-08-04T08:03:16.992Z,44.30
2022-08-04T08:05:54.694Z,44.20
2022-08-04T08:08:38.024Z,44.20
2022-08-04T08:11:04.903Z,44.00
2022-08-04T08:13:33.307Z,44.00
2022-08-04T08:16:00.206Z,44.10
2022-08-04T08:18:26.946Z,44.30
2022-08-04T08:20:53.707Z,44.10
2022-08-04T08:23:21.759Z,44.00
2022-08-04T08:25:49.496Z,44.00
2022-08-04T08:28:16.764Z,44.20
2022-08-04T08:30:43.450Z,44.90
2022-08-04T08:33:10.861Z,45.60
2022-08-04T08:35:51.146Z,46.20
2022-08-04T08:38:25.211Z,46.40
2022-08-04T08:40:56.558Z,45.70
2022-08-04T08:44:04.929Z,45.40
2022-08-04T08:46:48.414Z,45.70
2022-08-04T08:50:01.639Z,46.00
2022-08-04T08:52:17.458Z,46.50
2022-08-04T08:55:24.476Z,47.10
2022-08-04T08:58:00.168Z,47.30
2022-08-04T09:00:36.206Z,46.50
2022-08-04T09:03:11.143Z,46.00
2022-08-04T09:05:56.004Z,46.50
2022-08-04T09:08:22.681Z,47.10
2022-08-04T09:11:21.583Z,47.80
2022-08-04T09:13:50.329Z,48.20
2022-08-04T09:16:37.221Z,48.80
2022-08-04T09:19:10.113Z,49.00
2022-08-04T09:22:35.504Z,49.20
2022-08-04T09:25:04.819Z,49.30
2022-08-04T09:27:35.713Z,49.50
2022-08-04T09:30:06.122Z,49.70
2022-08-04T09:32:39.056Z,49.70
2022-08-04T09:35:19.271Z,49.50
2022-08-04T09:37:52.693Z,49.40
2022-08-04T09:40:31.784Z,48.90
2022-08-04T09:43:25.806Z,48.90
2022-08-04T09:46:13.649Z,48.60
2022-08-04T09:48:43.493Z,48.30
2022-08-04T09:51:59.198Z,48.00
2022-08-04T09:54:30.198Z,47.70
2022-08-04T09:57:15.947Z,47.10
2022-08-04T09:59:48.844Z,46.70
2022-08-04T10:02:15.682Z,46.10
2022-08-04T10:04:42.503Z,45.50
2022-08-04T10:07:25.862Z,44.60
2022-08-04T10:09:53.032Z,43.70
2022-08-04T10:12:25.806Z,43.00
2022-08-04T10:15:01.571Z,42.30
2022-08-04T10:17:52.226Z,41.40
2022-08-04T10:20:44.888Z,40.40
2022-08-04T10:23:13.025Z,39.60
2022-08-04T10:26:05.090Z,39.10
2022-08-04T10:28:26.557Z,38.80
2022-08-04T10:30:55.046Z,38.40
2022-08-04T10:33:23.623Z,38.20
2022-08-04T10:36:26.004Z,38.10
2022-08-04T10:38:56.704Z,38.00
2022-08-04T10:41:23.492Z,38.00
2022-08-04T10:44:08.423Z,38.00
2022-08-04T10:46:36.282Z,37.80
2022-08-04T10:49:04.640Z,37.70
2022-08-04T10:51:58.272Z,37.60
2022-08-04T10:54:47.985Z,37.50
2022-08-04T10:57:16.507Z,37.50
2022-08-04T10:59:45.687Z,37.20
2022-08-04T11:02:17.922Z,36.80
2022-08-04T11:04:45.797Z,36.60
2022-08-04T11:07:12.556Z,36.50
2022-08-04T11:09:39.715Z,36.60
2022-08-04T11:12:15.674Z,36.80
2022-08-04T11:14:46.305Z,36.90
2022-08-04T11:17:19.092Z,37.00
2022-08-04T11:19:53.537Z,37.20
2022-08-04T11:22:25.563Z,37.30
2022-08-04T11:25:04.257Z,37.40
2022-08-04T11:27:54.262Z,37.30
2022-08-04T11:30:21.025Z,37.10
2022-08-04T11:33:03.142Z,36.80
2022-08-04T11:35:35.430Z,36.60
2022-08-04T11:38:07.951Z,36.50
2022-08-04T11:40:36.772Z,36.50
2022-08-04T11:43:08.601Z,36.40
2022-08-04T11:45:37.646Z,36.40
2022-08-04T11:48:06.096Z,36.40
2022-08-04T11:50:34.779Z,36.50
2022-08-04T11:53:01.554Z,36.70
2022-08-04T11:55:28.304Z,36.90
2022-08-04T11:57:55.083Z,37.00
2022-08-04T12:00:21.799Z,37.00
2022-08-04T12:02:59.277Z,37.00
2022-08-04T12:05:37.875Z,37.10
2022-08-04T12:08:23.352Z,37.10
2022-08-04T12:11:06.180Z,37.20
2022-08-04T12:13:42.055Z,37.30
2022-08-04T12:16:30.382Z,37.40
2022-08-04T12:19:06.777Z,37.60
2022-08-04T12:21:37.957Z,37.60
2022-08-04T12:24:05.810Z,37.50
2022-08-04T12:26:37.112Z,37.50
2022-08-04T12:29:11.707Z,37.40
2022-08-04T12:31:55.378Z,37.40
2022-08-04T12:34:40.621Z,37.40
2022-08-04T12:37:33.363Z,37.40
2022-08-04T12:40:29.670Z,37.30
2022-08-04T12:42:56.438Z,37.30
2022-08-04T12:45:26.416Z,37.20
2022-08-04T12:47:53.372Z,37.10
2022-08-04T12:50:20.094Z,36.90
2022-08-04T12:53:06.640Z,36.70
2022-08-04T12:55:34.166Z,36.80
2022-08-04T12:58:01.786Z,37.10
2022-08-04T13:00:40.842Z,37.20
2022-08-04T13:03:17.477Z,37.20
2022-08-04T13:05:44.560Z,37.20
2022-08-04T13:08:11.625Z,37.20
2022-08-04T13:10:39.718Z,37.30
2022-08-04T13:13:06.486Z,37.30
2022-08-04T13:15:47.685Z,37.30
2022-08-04T13:18:23.196Z,37.30
2022-08-04T13:20:56.305Z,37.00
2022-08-04T13:23:23.015Z,36.70
2022-08-04T13:26:42.632Z,36.70
2022-08-04T13:28:42.820Z,36.80
2022-08-04T13:31:12.779Z,37.00
2022-08-04T13:33:41.289Z,36.90
2022-08-04T13:36:08.202Z,36.80
2022-08-04T13:38:35.443Z,36.70
2022-08-04T13:41:03.542Z,36.60
2022-08-04T13:44:16.955Z,36.50
2022-08-04T13:46:27.216Z,36.50
2022-08-04T13:49:23.485Z,36.40
2022-08-04T13:51:57.890Z,36.50
2022-08-04T13:54:46.139Z,36.60
2022-08-04T13:57:17.426Z,36.50
2022-08-04T13:59:48.107Z,36.70
2022-08-04T14:02:33.557Z,36.80
2022-08-04T14:05:01.928Z,36.90
2022-08-04T14:07:28.969Z,36.80
2022-08-04T14:10:03.094Z,36.70
2022-08-04T14:12:38.512Z,36.60
2022-08-04T14:16:01.305Z,36.30
2022-08-04T14:18:18.066Z,36.30
2022-08-04T14:21:05.065Z,36.40
2022-08-04T14:23:47.125Z,36.50
2022-08-04T14:26:14.532Z,36.60
2022-08-04T14:29:08.576Z,36.60
2022-08-04T14:31:30.970Z,36.70
2022-08-04T14:34:01.116Z,36.70
2022-08-04T14:36:38.362Z,36.70
2022-08-04T14:39:41.231Z,36.80
2022-08-04T14:42:08.166Z,36.80
2022-08-04T14:44:53.802Z,36.70
2022-08-04T14:47:29.870Z,36.70
2022-08-04T14:49:56.637Z,36.80
2022-08-04T14:52:24.385Z,36.80
2022-08-04T14:54:51.313Z,36.70
2022-08-04T14:57:18.046Z,36.60
2022-08-04T15:00:01.565Z,36.60
2022-08-04T15:02:30.562Z,36.60
2022-08-04T15:04:57.454Z,36.60
2022-08-04T15:07:24.175Z,36.50
2022-08-04T15:09:50.871Z,36.40
2022-08-04T15:12:17.571Z,36.30
2022-08-04T15:14:45.447Z,36.20
2022-08-04T15:17:29.758Z,36.30
2022-08-04T15:19:57.165Z,36.20
2022-08-04T15:22:24.016Z,36.20
2022-08-04T15:24:55.164Z,36.20
2022-08-04T15:27:24.433Z,36.20
2022-08-04T15:29:59.204Z,36.10
2022-08-04T15:32:28.616Z,36.00
2022-08-04T15:35:00.475Z,35.90
2022-08-04T15:37:28.119Z,35.80
2022-08-04T15:40:12.081Z,35.70
2022-08-04T15:42:49.068Z,35.70
2022-08-04T15:45:21.986Z,35.70
2022-08-04T15:48:02.713Z,35.70
2022-08-04T15:50:29.811Z,35.70
2022-08-04T15:53:00.537Z,35.70
2022-08-04T15:55:34.814Z,35.60
2022-08-04T15:58:05.311Z,35.60
2022-08-04T16:00:50.250Z,35.50
2022-08-04T16:03:57.749Z,35.40
2022-08-04T16:06:28.932Z,35.40
2022-08-04T16:09:00.224Z,35.30
2022-08-04T16:11:30.822Z,35.20
2022-08-04T16:13:58.630Z,35.20
2022-08-04T16:16:31.688Z,35.10
2022-08-04T16:19:05.382Z,35.00
2022-08-04T16:21:33.023Z,35.00
2022-08-04T16:24:08.673Z,34.90
2022-08-04T16:26:45.170Z,34.90
2022-08-04T16:29:24.216Z,34.80
2022-08-04T16:32:06.398Z,34.80
2022-08-04T16:34:53.906Z,34.80
2022-08-04T16:37:20.171Z,34.60
2022-08-04T16:39:50.152Z,34.60
2022-08-04T16:42:27.371Z,34.50
2022-08-04T16:45:09.273Z,34.50
2022-08-04T16:47:48.225Z,34.40
2022-08-04T16:50:18.422Z,34.40
2022-08-04T16:52:48.744Z,34.30
2022-08-04T16:55:15.994Z,34.20
2022-08-04T16:57:46.124Z,34.10
2022-08-04T17:00:12.901Z,34.10
2022-08-04T17:02:39.605Z,34.00
2022-08-04T17:05:08.161Z,33.90
2022-08-04T17:08:07.182Z,33.90
2022-08-04T17:10:37.467Z,33.80
2022-08-04T17:14:03.722Z,33.70
2022-08-04T17:16:11.678Z,33.70
2022-08-04T17:18:40.915Z,33.60
2022-08-04T17:21:07.655Z,33.50
2022-08-04T17:24:12.866Z,33.40
2022-08-04T17:26:22.272Z,33.40
2022-08-04T17:29:08.111Z,33.30
2022-08-04T17:31:35.758Z,33.20
2022-08-04T17:34:03.210Z,33.10
2022-08-04T17:36:33.664Z,33.10
2022-08-04T17:39:01.022Z,33.00
2022-08-04T17:41:30.534Z,32.90
2022-08-04T17:44:09.034Z,32.80
2022-08-04T17:46:43.249Z,32.80
2022-08-04T17:49:10.306Z,32.70
2022-08-04T17:52:04.930Z,32.70
2022-08-04T17:54:29.887Z,32.50
2022-08-04T18:00:03.335Z,32.40
2022-08-04T18:02:33.519Z,32.30
2022-08-04T18:05:07.752Z,32.20
2022-08-04T18:08:39.191Z,32.10
2022-08-04T18:10:43.252Z,32.00
2022-08-04T18:13:18.593Z,31.90
2022-08-04T18:15:47.585Z,31.70
2022-08-04T18:18:22.520Z,31.70
2022-08-04T18:20:50.084Z,31.50
2022-08-04T18:23:17.127Z,31.40
2022-08-04T18:25:51.030Z,31.40
2022-08-04T18:28:22.702Z,31.30
2022-08-04T18:30:55.333Z,31.20
2022-08-04T18:33:37.733Z,31.00
2022-08-04T18:36:33.471Z,30.90
2022-08-04T18:38:55.682Z,30.80
2022-08-04T18:41:25.379Z,30.70
2022-08-04T18:43:56.055Z,30.50
2022-08-04T18:46:23.959Z,30.40
2022-08-04T18:48:54.248Z,30.30
2022-08-04T18:51:22.881Z,30.20
2022-08-04T18:53:55.100Z,30.10
2022-08-04T18:56:33.039Z,30.00
2022-08-04T18:59:03.934Z,29.90
2022-08-04T19:02:12.529Z,29.80
2022-08-04T19:04:32.316Z,29.60
2022-08-04T19:07:24.599Z,29.40
2022-08-04T19:09:52.126Z,29.30
2022-08-04T19:15:08.445Z,29.10
2022-08-04T19:17:55.156Z,29.10
2022-08-04T19:20:26.341Z,29.00
2022-08-04T19:24:27.866Z,28.80
2022-08-04T19:25:59.180Z,28.70
2022-08-04T19:28:29.748Z,28.60
2022-08-04T19:30:57.463Z,28.50
2022-08-04T19:36:11.027Z,28.30
2022-08-04T19:38:38.297Z,28.10
2022-08-04T19:41:05.139Z,28.10
2022-08-04T19:43:43.595Z,28.00
2022-08-04T19:46:10.771Z,28.10
2022-08-04T19:48:39.571Z,28.00
2022-08-04T19:51:07.804Z,27.80
2022-08-04T19:53:37.463Z,27.80
2022-08-04T19:56:04.650Z,27.80
2022-08-04T19:58:31.340Z,27.70
2022-08-04T20:00:58.162Z,27.60
2022-08-04T20:04:10.595Z,27.50
2022-08-04T20:06:11.870Z,27.50
2022-08-04T20:08:38.586Z,27.40
2022-08-04T20:11:16.373Z,27.30
2022-08-04T20:13:43.938Z,27.20
2022-08-04T20:16:29.801Z,27.10
2022-08-04T20:19:02.809Z,27.00
2022-08-04T20:21:54.195Z,26.90
2022-08-04T20:27:07.765Z,26.80
2022-08-04T20:29:41.096Z,26.70
2022-08-04T20:32:10.345Z,26.60
2022-08-04T20:37:54.837Z,26.60
2022-08-04T20:40:14.661Z,26.50
2022-08-04T20:42:41.509Z,26.50
2022-08-04T20:45:16.132Z,26.40
2022-08-04T20:47:43.657Z,26.30
2022-08-04T20:50:11.304Z,26.20
2022-08-04T20:52:39.478Z,26.20
2022-08-04T20:55:07.133Z,26.20
2022-08-04T21:00:29.643Z,26.20
2022-08-04T21:02:57.503Z,26.20
2022-08-04T21:05:24.215Z,26.10
2022-08-04T21:07:56.728Z,26.10
2022-08-04T21:10:26.690Z,26.10
2022-08-04T21:12:53.786Z,26.10
2022-08-04T21:15:24.843Z,26.10
2022-08-04T21:17:58.244Z,26.10
2022-08-04T21:20:30.114Z,26.10
2022-08-04T21:25:50.932Z,26.00
2022-08-04T21:28:20.027Z,26.00
2022-08-04T21:30:54.708Z,25.90
2022-08-04T21:33:23.215Z,25.90
2022-08-04T21:35:54.348Z,25.80
2022-08-04T21:38:21.901Z,25.70
2022-08-04T21:41:01.399Z,25.60
2022-08-04T21:43:29.899Z,25.50
2022-08-04T21:46:09.530Z,25.40
2022-08-04T21:48:36.264Z,25.40
2022-08-04T21:51:21.639Z,25.30
2022-08-04T21:53:56.552Z,25.10
2022-08-04T21:56:26.448Z,25.10
2022-08-04T21:58:53.454Z,24.90
2022-08-04T22:01:50.229Z,24.90
2022-08-04T22:04:11.480Z,24.70
2022-08-04T22:06:39.186Z,24.60
2022-08-04T22:09:14.347Z,24.70
2022-08-04T22:11:43.902Z,24.70
2022-08-04T22:14:15.349Z,24.70
2022-08-04T22:16:42.521Z,24.70
2022-08-04T22:19:10.825Z,24.60
2022-08-04T22:21:39.246Z,24.60
2022-08-04T22:24:13.784Z,24.60
2022-08-04T22:26:40.953Z,24.50
2022-08-04T22:29:07.682Z,24.40
2022-08-04T22:31:56.164Z,24.40
2022-08-04T22:34:24.791Z,24.30
2022-08-04T22:36:52.582Z,24.30
2022-08-04T22:39:20.581Z,24.20
2022-08-04T22:42:03.774Z,24.20
2022-08-04T22:44:33.085Z,24.20
2022-08-04T22:47:00.447Z,24.20
2022-08-04T22:49:31.862Z,24.20
2022-08-04T22:51:59.732Z,24.20
2022-08-04T22:54:31.859Z,24.20
2022-08-04T22:56:58.642Z,24.30
2022-08-04T22:59:26.736Z,24.20
2022-08-04T23:02:01.345Z,24.20
2022-08-04T23:04:28.899Z,24.10
2022-08-04T23:06:55.652Z,24.00
2022-08-04T23:09:49.502Z,24.00
2022-08-04T23:12:24.269Z,23.90
2022-08-04T23:14:53.208Z,23.90
2022-08-04T23:17:21.966Z,23.80
2022-08-04T23:19:57.973Z,23.80
2022-08-04T23:22:41.414Z,23.70
2022-08-04T23:25:15.288Z,23.60
2022-08-04T23:27:44.059Z,23.60
2022-08-04T23:30:19.607Z,23.60
2022-08-04T23:32:46.340Z,23.50
2022-08-04T23:35:15.208Z,23.40
2022-08-04T23:37:56.147Z,23.30
2022-08-04T23:40:32.661Z,23.30
2022-08-04T23:43:17.425Z,23.20
2022-08-04T23:46:07.150Z,23.10
2022-08-04T23:48:32.415Z,23.10
2022-08-04T23:51:03.045Z,23.10
2022-08-04T23:53:29.728Z,23.10
2022-08-04T23:56:05.579Z,23.00
2022-08-04T23:58:32.331Z,22.90
